createdAt,value
2022-07-31T00:00:26.593Z,17.80
2022-07-31T00:02:56.070Z,17.80
2022-07-31T00:05:24.895Z,17.80
2022-07-31T00:07:54.821Z,17.80
2022-07-31T00:10:22.961Z,17.70
2022-07-31T00:12:51.102Z,17.70
2022-07-31T00:15:19.468Z,17.70
2022-07-31T00:17:48.439Z,17.60
2022-07-31T00:20:19.320Z,17.60
2022-07-31T00:22:48.827Z,17.50
2022-07-31T00:25:17.822Z,17.50
2022-07-31T00:27:46.249Z,17.60
2022-07-31T00:30:16.839Z,17.50
2022-07-31T00:32:45.289Z,17.40
2022-07-31T00:35:14.059Z,17.40
2022-07-31T00:37:45.362Z,17.40
2022-07-31T00:40:15.815Z,17.40
2022-07-31T00:42:44.291Z,17.40
2022-07-31T00:45:13.479Z,17.40
2022-07-31T00:47:42.323Z,17.30
2022-07-31T00:50:11.301Z,17.30
2022-07-31T00:52:39.424Z,17.30
2022-07-31T00:55:10.262Z,17.30
2022-07-31T00:57:38.398Z,17.30
2022-07-31T01:00:07.679Z,17.30
2022-07-31T01:02:36.194Z,17.30
2022-07-31T01:05:04.453Z,17.20
2022-07-31T01:07:32.666Z,17.20
2022-07-31T01:10:05.135Z,17.20
2022-07-31T01:12:40.713Z,17.10
2022-07-31T01:15:11.059Z,17.10
2022-07-31T01:17:41.068Z,17.00
2022-07-31T01:20:12.099Z,17.00
2022-07-31T01:22:57.298Z,17.00
2022-07-31T01:25:37.914Z,17.00
2022-07-31T01:28:23.232Z,16.90
2022-07-31T01:31:17.269Z,16.80
2022-07-31T01:33:49.948Z,16.70
2022-07-31T01:36:21.416Z,16.70
2022-07-31T01:38:53.811Z,16.60
2022-07-31T01:41:27.847Z,16.60
2022-07-31T01:43:58.135Z,16.50
2022-07-31T01:46:29.849Z,16.50
2022-07-31T01:48:59.056Z,16.40
2022-07-31T01:51:28.852Z,16.40
2022-07-31T01:53:57.321Z,16.30
2022-07-31T01:56:26.071Z,16.20
2022-07-31T01:58:55.804Z,16.20
2022-07-31T02:01:27.304Z,16.20
2022-07-31T02:04:00.535Z,16.10
2022-07-31T02:06:29.865Z,16.10
2022-07-31T02:08:59.168Z,16.10
2022-07-31T02:11:27.464Z,16.00
2022-07-31T02:13:58.413Z,16.00
2022-07-31T02:16:28.226Z,15.90
2022-07-31T02:18:59.482Z,15.80
2022-07-31T02:21:28.854Z,15.80
2022-07-31T02:23:57.220Z,15.80
2022-07-31T02:26:27.165Z,15.70
2022-07-31T02:28:55.651Z,15.70
2022-07-31T02:31:24.515Z,15.40
2022-07-31T02:33:53.550Z,15.60
2022-07-31T02:36:24.375Z,15.50
2022-07-31T02:38:54.961Z,15.50
2022-07-31T02:41:23.488Z,15.40
2022-07-31T02:43:52.577Z,15.40
2022-07-31T02:46:21.904Z,15.40
2022-07-31T02:48:51.064Z,15.30
2022-07-31T02:51:19.540Z,15.30
2022-07-31T02:53:49.964Z,15.20
2022-07-31T02:56:18.311Z,15.10
2022-07-31T02:58:47.364Z,15.10
2022-07-31T03:01:15.519Z,15.10
2022-07-31T03:03:44.050Z,15.00
2022-07-31T03:06:12.306Z,15.00
2022-07-31T03:08:40.365Z,15.00
2022-07-31T03:11:09.876Z,15.10
2022-07-31T03:13:38.977Z,14.90
2022-07-31T03:16:11.381Z,14.90
2022-07-31T03:18:41.237Z,14.80
2022-07-31T03:21:11.825Z,14.80
2022-07-31T03:23:40.269Z,14.80
2022-07-31T03:26:11.548Z,14.70
2022-07-31T03:28:39.678Z,14.80
2022-07-31T03:31:08.872Z,14.90
2022-07-31T03:33:37.003Z,14.70
2022-07-31T03:36:05.679Z,14.70
2022-07-31T03:38:41.564Z,14.70
2022-07-31T03:41:13.354Z,14.70
2022-07-31T03:43:44.318Z,14.70
2022-07-31T03:46:18.025Z,14.70
2022-07-31T03:48:47.193Z,14.70
2022-07-31T03:51:16.814Z,14.70
2022-07-31T03:53:46.069Z,14.70
2022-07-31T03:56:17.265Z,14.80
2022-07-31T03:58:45.445Z,14.80
2022-07-31T04:01:20.774Z,14.90
2022-07-31T04:03:49.004Z,14.90
2022-07-31T04:06:17.008Z,15.00
2022-07-31T04:08:45.144Z,15.10
2022-07-31T04:11:13.569Z,15.10
2022-07-31T04:13:43.163Z,15.20
2022-07-31T04:16:11.257Z,15.30
2022-07-31T04:18:40.590Z,15.30
2022-07-31T04:21:08.644Z,15.40
2022-07-31T04:23:36.795Z,15.40
2022-07-31T04:26:05.304Z,15.50
2022-07-31T04:28:33.666Z,15.50
2022-07-31T04:31:03.338Z,15.60
2022-07-31T04:33:31.440Z,15.60
2022-07-31T04:35:59.530Z,15.70
2022-07-31T04:38:27.913Z,15.70
2022-07-31T04:40:55.963Z,15.80
2022-07-31T04:43:24.073Z,16.00
2022-07-31T04:45:52.115Z,15.90
2022-07-31T04:48:21.530Z,16.00
2022-07-31T04:50:49.706Z,16.10
2022-07-31T04:53:17.748Z,16.30
2022-07-31T04:56:06.485Z,16.40
2022-07-31T04:58:35.763Z,16.40
2022-07-31T05:01:04.030Z,16.50
2022-07-31T05:03:33.464Z,16.60
2022-07-31T05:06:10.640Z,16.70
2022-07-31T05:08:40.526Z,16.70
2022-07-31T05:11:24.576Z,16.80
2022-07-31T05:13:54.199Z,16.80
2022-07-31T05:16:23.744Z,16.90
2022-07-31T05:18:53.603Z,17.00
2022-07-31T05:21:22.032Z,17.10
2022-07-31T05:23:50.864Z,17.10
2022-07-31T05:26:19.548Z,17.20
2022-07-31T05:28:49.539Z,17.30
2022-07-31T05:31:18.799Z,17.40
2022-07-31T05:33:47.917Z,17.50
2022-07-31T05:36:18.280Z,17.60
2022-07-31T05:38:46.506Z,17.60
2022-07-31T05:41:14.762Z,17.80
2022-07-31T05:43:43.110Z,17.90
2022-07-31T05:46:14.048Z,18.00
2022-07-31T05:48:42.203Z,18.10
2022-07-31T05:51:11.413Z,18.20
2022-07-31T05:53:41.407Z,18.30
2022-07-31T05:56:13.848Z,18.40
2022-07-31T05:58:41.930Z,18.50
2022-07-31T06:01:11.003Z,18.60
2022-07-31T06:03:52.286Z,18.70
2022-07-31T06:06:20.951Z,18.80
2022-07-31T06:08:50.387Z,18.80
2022-07-31T06:11:18.444Z,18.90
2022-07-31T06:13:46.488Z,19.00
2022-07-31T06:16:15.500Z,19.10
2022-07-31T06:18:44.072Z,19.20
2022-07-31T06:23:39.363Z,19.40
2022-07-31T06:26:08.781Z,19.60
2022-07-31T06:28:48.907Z,19.60
2022-07-31T06:31:19.284Z,19.70
2022-07-31T06:33:48.584Z,19.90
2022-07-31T06:36:17.361Z,19.90
2022-07-31T06:38:45.993Z,20.00
2022-07-31T06:41:35.933Z,20.00
2022-07-31T06:44:04.122Z,20.10
2022-07-31T06:46:32.234Z,20.20
2022-07-31T06:49:00.436Z,20.20
2022-07-31T06:51:31.203Z,20.30
2022-07-31T06:54:00.137Z,20.30
2022-07-31T06:56:29.773Z,20.40
2022-07-31T06:58:58.360Z,20.50
2022-07-31T07:01:26.523Z,20.60
2022-07-31T07:03:54.836Z,20.60
2022-07-31T07:06:23.511Z,20.60
2022-07-31T07:08:52.017Z,20.70
2022-07-31T07:11:20.698Z,20.80
2022-07-31T07:13:50.793Z,20.80
2022-07-31T07:16:18.941Z,20.90
2022-07-31T07:18:47.085Z,21.00
2022-07-31T07:21:15.165Z,21.20
2022-07-31T07:23:43.276Z,21.30
2022-07-31T07:26:11.542Z,21.40
2022-07-31T07:28:40.110Z,21.60
2022-07-31T07:31:09.609Z,21.80
2022-07-31T07:33:39.650Z,22.00
2022-07-31T07:36:23.075Z,22.30
2022-07-31T07:38:52.187Z,22.60
2022-07-31T07:41:21.729Z,23.00
2022-07-31T07:43:52.285Z,23.30
2022-07-31T07:46:22.986Z,23.40
2022-07-31T07:48:52.088Z,23.40
2022-07-31T07:51:21.154Z,23.40
2022-07-31T07:53:49.348Z,23.30
2022-07-31T07:56:17.695Z,23.20
2022-07-31T07:58:45.931Z,23.20
2022-07-31T08:01:14.849Z,23.20
2022-07-31T08:03:49.000Z,23.10
2022-07-31T08:06:18.669Z,23.20
2022-07-31T08:08:46.691Z,23.20
2022-07-31T08:11:17.602Z,23.20
2022-07-31T08:13:50.507Z,23.30
2022-07-31T08:16:19.659Z,23.40
2022-07-31T08:18:49.391Z,23.60
2022-07-31T08:21:17.665Z,23.80
2022-07-31T08:23:45.836Z,24.20
2022-07-31T08:26:14.218Z,24.50
2022-07-31T08:28:50.571Z,24.90
2022-07-31T08:31:19.907Z,25.10
2022-07-31T08:33:49.409Z,25.00
2022-07-31T08:36:17.752Z,24.90
2022-07-31T08:38:45.839Z,24.80
2022-07-31T08:41:15.670Z,24.80
2022-07-31T08:44:00.135Z,24.90
2022-07-31T08:46:33.702Z,24.90
2022-07-31T08:49:05.034Z,25.00
2022-07-31T08:51:50.890Z,25.20
2022-07-31T08:54:21.901Z,25.20
2022-07-31T08:56:52.563Z,25.30
2022-07-31T08:59:22.115Z,25.20
2022-07-31T09:01:51.306Z,24.80
2022-07-31T09:04:20.876Z,24.60
2022-07-31T09:06:49.041Z,24.40
2022-07-31T09:09:18.021Z,24.40
2022-07-31T09:11:51.837Z,24.40
2022-07-31T09:14:27.864Z,24.40
2022-07-31T09:16:56.843Z,24.50
2022-07-31T09:19:53.867Z,24.70
2022-07-31T09:22:24.034Z,24.90
2022-07-31T09:24:53.219Z,25.20
2022-07-31T09:27:28.713Z,25.40
2022-07-31T09:29:58.485Z,25.60
2022-07-31T09:32:26.634Z,25.60
2022-07-31T09:34:56.126Z,25.50
2022-07-31T09:37:27.670Z,25.50
2022-07-31T09:39:57.416Z,25.60
2022-07-31T09:42:35.850Z,25.60
2022-07-31T09:45:04.199Z,25.80
2022-07-31T09:47:33.223Z,26.20
2022-07-31T09:50:04.953Z,26.50
2022-07-31T09:52:33.658Z,27.00
2022-07-31T09:55:14.328Z,27.10
2022-07-31T09:57:52.929Z,27.30
2022-07-31T10:00:21.508Z,27.40
2022-07-31T10:02:50.670Z,27.40
2022-07-31T10:05:22.770Z,27.30
2022-07-31T10:07:51.558Z,27.00
2022-07-31T10:10:20.174Z,26.70
2022-07-31T10:12:51.999Z,26.60
2022-07-31T10:15:22.083Z,26.50
2022-07-31T10:17:53.758Z,26.60
2022-07-31T10:20:25.638Z,26.70
2022-07-31T10:22:57.745Z,26.80
2022-07-31T10:25:29.009Z,26.90
2022-07-31T10:27:58.322Z,27.00
2022-07-31T10:30:28.445Z,27.30
2022-07-31T10:32:58.709Z,27.50
2022-07-31T10:35:28.996Z,27.40
2022-07-31T10:38:04.907Z,27.20
2022-07-31T10:40:41.178Z,26.90
2022-07-31T10:43:20.303Z,26.60
2022-07-31T10:45:50.573Z,26.40
2022-07-31T10:48:19.469Z,26.10
2022-07-31T10:50:49.785Z,25.90
2022-07-31T10:53:19.767Z,25.70
2022-07-31T10:55:47.975Z,25.70
2022-07-31T10:58:20.123Z,25.60
2022-07-31T11:00:48.454Z,25.70
2022-07-31T11:03:18.615Z,25.80
2022-07-31T11:06:00.967Z,25.80
2022-07-31T11:08:42.548Z,25.80
2022-07-31T11:11:11.466Z,25.70
2022-07-31T11:13:50.637Z,25.70
2022-07-31T11:16:20.008Z,25.70
2022-07-31T11:18:58.776Z,25.70
2022-07-31T11:21:38.994Z,25.60
2022-07-31T11:24:14.602Z,25.60
2022-07-31T11:26:52.240Z,25.70
2022-07-31T11:30:01.809Z,25.90
2022-07-31T11:32:25.316Z,26.10
2022-07-31T11:34:56.077Z,26.30
2022-07-31T11:37:46.163Z,26.60
2022-07-31T11:40:15.536Z,26.70
2022-07-31T11:42:46.091Z,26.60
2022-07-31T11:45:15.395Z,26.60
2022-07-31T11:48:12.160Z,26.50
2022-07-31T11:50:41.126Z,26.50
2022-07-31T11:53:10.770Z,26.60
2022-07-31T11:55:46.430Z,26.70
2022-07-31T11:58:15.372Z,26.70
2022-07-31T12:00:48.851Z,26.70
2022-07-31T12:03:18.763Z,26.90
2022-07-31T12:05:48.227Z,26.90
2022-07-31T12:08:17.905Z,26.70
2022-07-31T12:10:47.144Z,26.50
2022-07-31T12:13:16.850Z,26.30
2022-07-31T12:15:59.617Z,26.10
2022-07-31T12:18:28.544Z,26.00
2022-07-31T12:21:02.751Z,25.80
2022-07-31T12:23:42.829Z,25.90
2022-07-31T12:26:13.827Z,25.90
2022-07-31T12:28:42.241Z,26.00
2022-07-31T12:31:10.320Z,26.00
2022-07-31T12:33:42.938Z,26.50
2022-07-31T12:36:15.669Z,27.00
2022-07-31T12:38:48.273Z,27.50
2022-07-31T12:41:17.596Z,27.60
2022-07-31T12:43:51.743Z,27.40
2022-07-31T12:46:21.891Z,27.10
2022-07-31T12:48:50.170Z,26.90
2022-07-31T12:51:20.473Z,26.70
2022-07-31T12:54:09.581Z,26.80
2022-07-31T12:56:38.905Z,27.30
2022-07-31T12:59:07.402Z,27.70
2022-07-31T13:01:36.760Z,28.00
2022-07-31T13:04:07.923Z,28.20
2022-07-31T13:06:38.702Z,28.20
2022-07-31T13:09:06.803Z,28.10
2022-07-31T13:11:45.602Z,28.10
2022-07-31T13:14:15.224Z,28.20
2022-07-31T13:16:43.334Z,28.20
2022-07-31T13:19:11.604Z,27.80
2022-07-31T13:21:49.336Z,27.40
2022-07-31T13:24:19.421Z,27.00
2022-07-31T13:26:49.328Z,26.50
2022-07-31T13:29:18.162Z,26.30
2022-07-31T13:31:46.656Z,26.10
2022-07-31T13:34:14.809Z,25.70
2022-07-31T13:36:42.951Z,25.40
2022-07-31T13:39:11.532Z,25.20
2022-07-31T13:41:40.191Z,25.00
2022-07-31T13:44:10.147Z,24.90
2022-07-31T13:46:38.382Z,24.90
2022-07-31T13:49:09.018Z,24.90
2022-07-31T13:51:37.691Z,25.00
2022-07-31T13:54:06.246Z,25.10
2022-07-31T13:56:42.103Z,25.20
2022-07-31T13:59:14.248Z,25.40
2022-07-31T14:02:03.661Z,25.50
2022-07-31T14:04:32.780Z,25.50
2022-07-31T14:07:07.548Z,25.50
2022-07-31T14:09:36.068Z,25.30
2022-07-31T14:12:05.767Z,25.20
2022-07-31T14:14:35.574Z,25.10
2022-07-31T14:17:03.715Z,25.00
2022-07-31T14:19:43.949Z,24.90
2022-07-31T14:22:12.883Z,24.80
2022-07-31T14:24:41.723Z,24.60
2022-07-31T14:27:18.155Z,24.60
2022-07-31T14:29:47.898Z,24.50
2022-07-31T14:32:16.062Z,24.60
2022-07-31T14:34:44.210Z,24.60
2022-07-31T14:37:12.320Z,24.70
2022-07-31T14:39:42.983Z,24.70
2022-07-31T14:42:11.680Z,24.80
2022-07-31T14:44:41.967Z,25.00
2022-07-31T14:47:12.725Z,25.50
2022-07-31T14:50:06.851Z,26.10
2022-07-31T14:52:30.198Z,26.50
2022-07-31T14:54:59.726Z,26.80
2022-07-31T14:57:28.109Z,26.80
2022-07-31T14:59:56.224Z,26.60
2022-07-31T15:02:26.341Z,26.30
2022-07-31T15:04:54.713Z,26.10
2022-07-31T15:07:44.009Z,25.60
2022-07-31T15:10:12.838Z,25.30
2022-07-31T15:12:41.154Z,25.00
2022-07-31T15:15:10.431Z,24.70
2022-07-31T15:17:39.946Z,24.60
2022-07-31T15:20:08.907Z,24.50
2022-07-31T15:22:37.042Z,24.30
2022-07-31T15:25:05.567Z,24.30
2022-07-31T15:27:33.648Z,24.20
2022-07-31T15:30:07.178Z,24.00
2022-07-31T15:32:37.139Z,24.00
2022-07-31T15:35:09.056Z,23.80
2022-07-31T15:37:38.072Z,23.70
2022-07-31T15:40:09.051Z,23.60
2022-07-31T15:42:40.449Z,23.50
2022-07-31T15:45:10.855Z,23.50
2022-07-31T15:47:39.475Z,23.50
2022-07-31T15:50:11.252Z,23.50
2022-07-31T15:52:39.523Z,23.60
2022-07-31T15:55:08.939Z,23.80
2022-07-31T15:57:37.207Z,24.20
2022-07-31T16:00:07.419Z,24.40
2022-07-31T16:02:35.494Z,24.60
2022-07-31T16:05:11.934Z,24.80
2022-07-31T16:08:32.164Z,24.80
2022-07-31T16:10:38.156Z,24.90
2022-07-31T16:13:06.335Z,24.90
2022-07-31T16:15:35.721Z,24.80
2022-07-31T16:18:04.775Z,24.80
2022-07-31T16:20:32.840Z,24.90
2022-07-31T16:23:02.602Z,24.90
2022-07-31T16:25:34.796Z,24.70
2022-07-31T16:28:03.240Z,24.70
2022-07-31T16:30:31.568Z,24.80
2022-07-31T16:32:59.820Z,25.00
2022-07-31T16:35:28.104Z,25.10
2022-07-31T16:37:56.765Z,25.20
2022-07-31T16:40:30.924Z,25.30
2022-07-31T16:43:01.901Z,25.30
2022-07-31T16:45:30.838Z,25.20
2022-07-31T16:47:59.113Z,25.00
2022-07-31T16:50:27.626Z,24.80
2022-07-31T16:52:55.887Z,24.70
2022-07-31T16:55:51.705Z,24.40
2022-07-31T16:58:16.727Z,24.30
2022-07-31T17:00:44.884Z,24.10
2022-07-31T17:03:58.701Z,24.10
2022-07-31T17:06:01.566Z,24.00
2022-07-31T17:08:29.847Z,24.20
2022-07-31T17:10:59.399Z,24.20
2022-07-31T17:13:27.473Z,24.40
2022-07-31T17:15:55.625Z,24.40
2022-07-31T17:18:25.354Z,24.40
2022-07-31T17:20:55.680Z,24.30
2022-07-31T17:23:43.452Z,24.10
2022-07-31T17:26:20.795Z,23.90
2022-07-31T17:28:50.657Z,23.70
2022-07-31T17:31:19.534Z,23.50
2022-07-31T17:33:59.384Z,23.40
2022-07-31T17:36:29.845Z,23.30
2022-07-31T17:38:58.163Z,23.30
2022-07-31T17:41:27.588Z,23.30
2022-07-31T17:43:55.748Z,23.30
2022-07-31T17:46:28.188Z,23.20
2022-07-31T17:49:03.263Z,23.20
2022-07-31T17:51:31.362Z,23.20
2022-07-31T17:53:59.910Z,23.20
2022-07-31T17:56:29.874Z,23.20
2022-07-31T17:59:03.812Z,23.10
2022-07-31T18:01:31.871Z,23.10
2022-07-31T18:04:00.083Z,23.00
2022-07-31T18:06:28.509Z,23.00
2022-07-31T18:08:56.823Z,22.90
2022-07-31T18:11:25.003Z,22.90
2022-07-31T18:13:55.528Z,22.80
2022-07-31T18:16:29.108Z,22.90
2022-07-31T18:18:57.180Z,22.90
2022-07-31T18:21:25.187Z,22.80
2022-07-31T18:23:53.276Z,22.80
2022-07-31T18:26:22.510Z,22.70
2022-07-31T18:28:50.641Z,22.60
2022-07-31T18:31:33.918Z,22.50
2022-07-31T18:34:04.516Z,22.50
2022-07-31T18:36:33.257Z,22.40
2022-07-31T18:39:02.013Z,22.30
2022-07-31T18:41:30.308Z,22.10
2022-07-31T18:43:58.570Z,22.00
2022-07-31T18:46:28.447Z,21.90
2022-07-31T18:48:57.112Z,21.70
2022-07-31T18:51:25.673Z,21.50
2022-07-31T18:53:54.793Z,21.40
2022-07-31T18:56:23.931Z,21.30
2022-07-31T18:58:52.817Z,21.20
2022-07-31T19:01:21.650Z,21.00
2022-07-31T19:03:51.629Z,20.90
2022-07-31T19:06:20.203Z,20.80
2022-07-31T19:08:49.632Z,20.80
2022-07-31T19:11:17.923Z,20.70
2022-07-31T19:13:46.160Z,20.60
2022-07-31T19:16:15.897Z,20.50
2022-07-31T19:18:50.438Z,20.50
2022-07-31T19:21:41.574Z,20.30
2022-07-31T19:24:09.278Z,20.20
2022-07-31T19:26:37.874Z,20.10
2022-07-31T19:29:06.625Z,20.00
2022-07-31T19:31:34.945Z,19.90
2022-07-31T19:34:03.180Z,19.90
2022-07-31T19:36:32.704Z,19.90
2022-07-31T19:39:00.791Z,19.80
2022-07-31T19:41:29.067Z,19.80
2022-07-31T19:43:57.425Z,19.80
2022-07-31T19:46:25.579Z,19.70
2022-07-31T19:48:53.836Z,19.70
2022-07-31T19:51:22.745Z,19.70
2022-07-31T19:53:53.298Z,19.60
2022-07-31T19:56:21.689Z,19.60
2022-07-31T19:58:52.222Z,19.60
2022-07-31T20:01:22.266Z,19.60
2022-07-31T20:03:53.246Z,19.50
2022-07-31T20:06:23.561Z,19.50
2022-07-31T20:08:58.739Z,19.50
2022-07-31T20:11:28.703Z,19.50
2022-07-31T20:13:57.299Z,19.50
2022-07-31T20:16:27.597Z,19.40
2022-07-31T20:18:57.033Z,19.40
2022-07-31T20:21:25.234Z,19.40
2022-07-31T20:23:56.588Z,19.40
2022-07-31T20:26:26.260Z,19.40
2022-07-31T20:28:55.548Z,19.40
2022-07-31T20:31:23.798Z,19.30
2022-07-31T20:33:57.594Z,19.40
2022-07-31T20:36:27.661Z,19.40
2022-07-31T20:38:59.358Z,19.40
2022-07-31T20:41:30.089Z,19.40
2022-07-31T20:43:58.543Z,19.50
2022-07-31T20:46:27.721Z,19.50
2022-07-31T20:48:57.520Z,19.50
2022-07-31T20:51:26.533Z,19.40
2022-07-31T20:53:55.856Z,19.40
2022-07-31T20:56:24.368Z,19.40
2022-07-31T20:58:54.779Z,19.40
2022-07-31T21:01:23.271Z,19.30
2022-07-31T21:03:52.191Z,19.30
2022-07-31T21:06:21.026Z,19.30
2022-07-31T21:08:49.518Z,19.30
2022-07-31T21:11:20.406Z,19.20
2022-07-31T21:13:48.671Z,19.30
2022-07-31T21:16:20.036Z,19.20
2022-07-31T21:18:51.096Z,19.20
2022-07-31T21:21:19.977Z,19.20
2022-07-31T21:23:48.135Z,19.20
2022-07-31T21:26:16.890Z,19.20
2022-07-31T21:28:46.463Z,19.20
2022-07-31T21:31:14.787Z,19.20
2022-07-31T21:33:45.374Z,19.20
2022-07-31T21:36:15.544Z,19.20
2022-07-31T21:38:44.889Z,19.20
2022-07-31T21:41:14.000Z,19.20
2022-07-31T21:43:59.193Z,19.20
2022-07-31T21:46:30.315Z,19.20
2022-07-31T21:49:00.887Z,19.20
2022-07-31T21:51:29.803Z,19.20
2022-07-31T21:53:58.152Z,19.20
2022-07-31T21:56:26.809Z,19.20
2022-07-31T21:58:54.982Z,19.20
2022-07-31T22:01:23.435Z,19.20
2022-07-31T22:03:51.563Z,19.30
2022-07-31T22:06:38.502Z,19.20
2022-07-31T22:09:06.635Z,19.20
2022-07-31T22:11:35.792Z,19.20
2022-07-31T22:14:03.880Z,19.20
2022-07-31T22:16:32.050Z,19.10
2022-07-31T22:19:00.406Z,19.10
2022-07-31T22:21:30.203Z,19.10
2022-07-31T22:23:58.768Z,19.10
2022-07-31T22:26:27.410Z,19.10
2022-07-31T22:28:56.713Z,19.10
2022-07-31T22:31:25.406Z,19.10
2022-07-31T22:33:53.732Z,19.10
2022-07-31T22:36:22.247Z,19.10
2022-07-31T22:38:52.344Z,19.10
2022-07-31T22:41:20.654Z,19.10
2022-07-31T22:44:13.413Z,19.10
2022-07-31T22:46:38.330Z,19.10
2022-07-31T22:49:08.400Z,19.10
2022-07-31T22:51:38.558Z,19.10
2022-07-31T22:54:08.722Z,19.10
2022-07-31T22:56:36.843Z,19.10
2022-07-31T22:59:05.067Z,19.10
2022-07-31T23:01:33.581Z,19.10
2022-07-31T23:04:01.663Z,19.10
2022-07-31T23:06:32.552Z,19.10
2022-07-31T23:09:01.921Z,19.10
2022-07-31T23:11:31.511Z,19.10
2022-07-31T23:13:59.605Z,19.10
2022-07-31T23:16:28.066Z,19.10
2022-07-31T23:18:56.321Z,19.10
2022-07-31T23:21:24.766Z,19.10
2022-07-31T23:23:53.302Z,19.10
2022-07-31T23:26:23.983Z,19.10
2022-07-31T23:28:54.436Z,19.20
2022-07-31T23:31:23.680Z,19.20
2022-07-31T23:33:52.667Z,19.20
2022-07-31T23:36:20.879Z,19.20
2022-07-31T23:38:49.606Z,19.20
2022-07-31T23:41:38.898Z,19.20
2022-07-31T23:44:09.866Z,19.20
2022-07-31T23:46:38.935Z,19.20
2022-07-31T23:49:09.075Z,19.20
2022-07-31T23:51:37.334Z,19.20
2022-07-31T23:54:06.252Z,19.20
2022-07-31T23:56:34.508Z,19.20
2022-07-31T23:59:02.541Z,19.20
